N128EC KBWI-KMCI
Flight info
| Callsign | N128EC |
|---|---|
| Flight time | 2h 15m |
| Altitude | 43000 |
| Route | FOXHL1 OTTTO Q176 STL EUING RUDDH3 |
| Aircraft | C750/M-SBDE3FGHRWXY/S |
Departure
| Time | 2026-05-04 02:56 |
|---|---|
| Airport | Baltimore/Washington International Thurgood Marshall Airport (KBWI) |
Arrival
| Time | 2026-05-04 05:12 |
|---|---|
| Airport | Kansas City International Airport (KMCI) |
| Time | Latitude | Longitude | Altitude | Speed | Heading |
|---|---|---|---|---|---|
| 2026-05-04 02:01 | 39.18595 | -76.65784 | 143 ft | 0 kts | 326° |
| 2026-05-04 02:42 | 39.18587 | -76.65777 | 143 ft | 4 kts | 325° |
| 2026-05-04 02:43 | 39.18565 | -76.65757 | 142 ft | 4 kts | 326° |
| 2026-05-04 02:43 | 39.18542 | -76.65742 | 142 ft | 4 kts | 356° |
| 2026-05-04 02:43 | 39.18531 | -76.65742 | 142 ft | 3 kts | 51° |
| 2026-05-04 02:43 | 39.18529 | -76.65744 | 142 ft | 0 kts | 54° |
| 2026-05-04 02:48 | 39.18535 | -76.65734 | 142 ft | 4 kts | 54° |
| 2026-05-04 02:48 | 39.18560 | -76.65689 | 141 ft | 6 kts | 53° |
| 2026-05-04 02:48 | 39.18557 | -76.65643 | 140 ft | 6 kts | 137° |
| 2026-05-04 02:48 | 39.18515 | -76.65631 | 139 ft | 7 kts | 220° |
| 2026-05-04 02:49 | 39.18481 | -76.65688 | 141 ft | 9 kts | 234° |
| 2026-05-04 02:49 | 39.18449 | -76.65744 | 144 ft | 7 kts | 226° |
| 2026-05-04 02:49 | 39.18426 | -76.65782 | 147 ft | 4 kts | 234° |
| 2026-05-04 02:49 | 39.18416 | -76.65800 | 149 ft | 1 kts | 234° |
| 2026-05-04 02:50 | 39.18407 | -76.65815 | 150 ft | 4 kts | 234° |
| 2026-05-04 02:50 | 39.18383 | -76.65870 | 154 ft | 7 kts | 257° |
| 2026-05-04 02:50 | 39.18423 | -76.65932 | 155 ft | 8 kts | 325° |
| 2026-05-04 02:50 | 39.18418 | -76.66003 | 156 ft | 13 kts | 230° |
| 2026-05-04 02:51 | 39.18353 | -76.66099 | 156 ft | 10 kts | 199° |
| 2026-05-04 02:51 | 39.18276 | -76.66065 | 157 ft | 13 kts | 158° |
| 2026-05-04 02:51 | 39.18176 | -76.66012 | 156 ft | 18 kts | 156° |
| 2026-05-04 02:51 | 39.18097 | -76.65972 | 155 ft | 11 kts | 172° |
| 2026-05-04 02:52 | 39.18015 | -76.66015 | 152 ft | 12 kts | 192° |
| 2026-05-04 02:52 | 39.17929 | -76.65958 | 147 ft | 18 kts | 148° |
| 2026-05-04 02:52 | 39.17809 | -76.65863 | 143 ft | 22 kts | 148° |
| 2026-05-04 02:52 | 39.17688 | -76.65766 | 145 ft | 19 kts | 148° |
| 2026-05-04 02:53 | 39.17588 | -76.65687 | 148 ft | 15 kts | 148° |
| 2026-05-04 02:53 | 39.17504 | -76.65661 | 152 ft | 11 kts | 183° |
| 2026-05-04 02:53 | 39.17439 | -76.65657 | 152 ft | 8 kts | 150° |
| 2026-05-04 02:53 | 39.17420 | -76.65583 | 153 ft | 12 kts | 99° |
| 2026-05-04 02:54 | 39.17380 | -76.65522 | 153 ft | 1 kts | 170° |
| 2026-05-04 02:55 | 39.17345 | -76.65523 | 154 ft | 7 kts | 184° |
| 2026-05-04 02:55 | 39.17286 | -76.65560 | 153 ft | 13 kts | 242° |
| 2026-05-04 02:55 | 39.17285 | -76.65661 | 150 ft | 19 kts | 273° |
| 2026-05-04 02:56 | 39.17316 | -76.66031 | 148 ft | 67 kts | 272° |
| 2026-05-04 02:56 | 39.17361 | -76.66922 | 159 ft | 130 kts | 274° |
| 2026-05-04 02:56 | 39.17436 | -76.68180 | 447 ft | 147 kts | 272° |
| 2026-05-04 02:56 | 39.17533 | -76.69580 | 812 ft | 160 kts | 274° |
| 2026-05-04 02:57 | 39.17643 | -76.70942 | 1556 ft | 151 kts | 276° |
| 2026-05-04 02:57 | 39.17780 | -76.72308 | 2007 ft | 163 kts | 277° |
| 2026-05-04 02:57 | 39.17833 | -76.73798 | 2575 ft | 168 kts | 269° |
| 2026-05-04 02:57 | 39.17823 | -76.75315 | 3289 ft | 174 kts | 271° |
| 2026-05-04 02:58 | 39.17888 | -76.76909 | 4123 ft | 182 kts | 274° |
| 2026-05-04 02:58 | 39.17980 | -76.78556 | 5043 ft | 186 kts | 274° |
| 2026-05-04 02:58 | 39.18074 | -76.80235 | 6009 ft | 189 kts | 274° |
| 2026-05-04 02:58 | 39.18167 | -76.81941 | 6937 ft | 192 kts | 274° |
| 2026-05-04 02:59 | 39.18410 | -76.83647 | 7837 ft | 197 kts | 288° |
| 2026-05-04 02:59 | 39.18917 | -76.85304 | 8835 ft | 200 kts | 289° |
| 2026-05-04 02:59 | 39.19389 | -76.86993 | 9885 ft | 199 kts | 287° |
| 2026-05-04 02:59 | 39.19821 | -76.88667 | 10811 ft | 195 kts | 287° |
| 2026-05-04 03:00 | 39.20250 | -76.90317 | 11731 ft | 193 kts | 287° |
| 2026-05-04 03:00 | 39.20677 | -76.91944 | 12631 ft | 190 kts | 287° |
| 2026-05-04 03:00 | 39.21099 | -76.93554 | 13521 ft | 188 kts | 287° |
| 2026-05-04 03:00 | 39.21516 | -76.95147 | 14348 ft | 187 kts | 287° |
| 2026-05-04 03:01 | 39.21918 | -76.96727 | 15126 ft | 184 kts | 284° |
| 2026-05-04 03:01 | 39.22009 | -76.98359 | 15877 ft | 182 kts | 270° |
| 2026-05-04 03:01 | 39.22025 | -76.99981 | 16697 ft | 180 kts | 272° |
| 2026-05-04 03:01 | 39.22059 | -77.01583 | 17513 ft | 178 kts | 271° |
| 2026-05-04 03:02 | 39.22085 | -77.03154 | 18327 ft | 177 kts | 271° |
| 2026-05-04 03:02 | 39.22108 | -77.04735 | 19038 ft | 176 kts | 271° |
| 2026-05-04 03:02 | 39.22131 | -77.06307 | 19756 ft | 174 kts | 271° |
| 2026-05-04 03:02 | 39.22154 | -77.07863 | 20479 ft | 173 kts | 271° |
| 2026-05-04 03:03 | 39.22177 | -77.09410 | 21210 ft | 173 kts | 271° |
| 2026-05-04 03:03 | 39.22201 | -77.11029 | 21573 ft | 190 kts | 271° |
| 2026-05-04 03:03 | 39.22133 | -77.12803 | 21900 ft | 208 kts | 261° |
| 2026-05-04 03:03 | 39.21570 | -77.14608 | 22322 ft | 228 kts | 244° |
| 2026-05-04 03:04 | 39.20504 | -77.16219 | 22869 ft | 243 kts | 233° |
| 2026-05-04 03:04 | 39.19298 | -77.17788 | 23516 ft | 249 kts | 233° |
| 2026-05-04 03:04 | 39.18082 | -77.19399 | 24096 ft | 253 kts | 233° |
| 2026-05-04 03:04 | 39.16841 | -77.21045 | 24677 ft | 257 kts | 233° |
| 2026-05-04 03:05 | 39.15580 | -77.22708 | 25287 ft | 261 kts | 233° |
| 2026-05-04 03:05 | 39.14299 | -77.24399 | 25773 ft | 269 kts | 233° |
| 2026-05-04 03:05 | 39.12961 | -77.26172 | 26115 ft | 283 kts | 233° |
| 2026-05-04 03:05 | 39.11556 | -77.28025 | 26464 ft | 295 kts | 233° |
| 2026-05-04 03:06 | 39.10089 | -77.29954 | 26778 ft | 307 kts | 233° |
| 2026-05-04 03:06 | 39.08588 | -77.31929 | 27139 ft | 318 kts | 233° |
| 2026-05-04 03:06 | 39.07029 | -77.34006 | 27502 ft | 326 kts | 234° |
| 2026-05-04 03:06 | 39.05638 | -77.36338 | 27853 ft | 331 kts | 242° |
| 2026-05-04 03:07 | 39.04500 | -77.38933 | 28219 ft | 336 kts | 249° |
| 2026-05-04 03:07 | 39.03646 | -77.41760 | 28584 ft | 342 kts | 256° |
| 2026-05-04 03:07 | 39.02982 | -77.44727 | 28965 ft | 349 kts | 256° |
| 2026-05-04 03:07 | 39.02287 | -77.47753 | 29349 ft | 356 kts | 256° |
| 2026-05-04 03:08 | 39.01573 | -77.50838 | 29744 ft | 363 kts | 256° |
| 2026-05-04 03:08 | 39.00857 | -77.53985 | 30134 ft | 369 kts | 256° |
| 2026-05-04 03:08 | 39.00131 | -77.57187 | 30456 ft | 375 kts | 256° |
| 2026-05-04 03:08 | 38.99389 | -77.60432 | 30792 ft | 381 kts | 256° |
| 2026-05-04 03:09 | 38.98636 | -77.63706 | 31120 ft | 384 kts | 256° |
| 2026-05-04 03:09 | 38.97886 | -77.66974 | 31447 ft | 388 kts | 256° |
| 2026-05-04 03:09 | 38.97121 | -77.70307 | 31786 ft | 389 kts | 255° |
| 2026-05-04 03:09 | 38.96353 | -77.73643 | 32126 ft | 389 kts | 255° |
| 2026-05-04 03:10 | 38.95586 | -77.76971 | 32459 ft | 388 kts | 255° |
| 2026-05-04 03:10 | 38.94819 | -77.80294 | 32793 ft | 387 kts | 255° |
| 2026-05-04 03:10 | 38.94053 | -77.83609 | 33064 ft | 386 kts | 255° |
| 2026-05-04 03:10 | 38.93290 | -77.86905 | 33390 ft | 385 kts | 255° |
| 2026-05-04 03:11 | 38.92527 | -77.90195 | 33707 ft | 384 kts | 255° |
| 2026-05-04 03:11 | 38.91766 | -77.93478 | 34021 ft | 383 kts | 254° |
| 2026-05-04 03:11 | 38.91004 | -77.96755 | 34306 ft | 384 kts | 255° |
| 2026-05-04 03:11 | 38.90237 | -78.00049 | 34560 ft | 385 kts | 255° |
| 2026-05-04 03:12 | 38.89469 | -78.03344 | 34811 ft | 386 kts | 255° |
| 2026-05-04 03:12 | 38.88698 | -78.06648 | 35055 ft | 386 kts | 255° |
| 2026-05-04 03:12 | 38.87924 | -78.09958 | 35297 ft | 387 kts | 255° |
| 2026-05-04 03:12 | 38.87149 | -78.13270 | 35542 ft | 387 kts | 255° |
| 2026-05-04 03:13 | 38.86382 | -78.16543 | 35785 ft | 388 kts | 255° |
| 2026-05-04 03:13 | 38.85746 | -78.19904 | 36001 ft | 388 kts | 260° |
| 2026-05-04 03:13 | 38.85432 | -78.23344 | 36235 ft | 388 kts | 266° |
| 2026-05-04 03:13 | 38.85384 | -78.26810 | 36466 ft | 389 kts | 269° |
| 2026-05-04 03:14 | 38.85350 | -78.30284 | 36699 ft | 389 kts | 268° |
| 2026-05-04 03:14 | 38.85299 | -78.33760 | 36928 ft | 390 kts | 268° |
| 2026-05-04 03:14 | 38.85257 | -78.37244 | 37138 ft | 391 kts | 268° |
| 2026-05-04 03:14 | 38.85224 | -78.40723 | 37365 ft | 390 kts | 269° |
| 2026-05-04 03:15 | 38.85185 | -78.44205 | 37568 ft | 391 kts | 269° |
| 2026-05-04 03:15 | 38.85141 | -78.47654 | 37782 ft | 392 kts | 268° |
| 2026-05-04 03:15 | 38.85096 | -78.51147 | 37994 ft | 391 kts | 269° |
| 2026-05-04 03:15 | 38.85053 | -78.54638 | 38193 ft | 392 kts | 269° |
| 2026-05-04 03:16 | 38.85009 | -78.58131 | 38382 ft | 392 kts | 269° |
| 2026-05-04 03:16 | 38.84962 | -78.61633 | 38573 ft | 392 kts | 269° |
| 2026-05-04 03:16 | 38.84915 | -78.65138 | 38743 ft | 393 kts | 269° |
| 2026-05-04 03:16 | 38.84866 | -78.68644 | 38892 ft | 393 kts | 269° |
| 2026-05-04 03:17 | 38.84816 | -78.72162 | 39032 ft | 395 kts | 269° |
| 2026-05-04 03:17 | 38.84766 | -78.75683 | 39166 ft | 395 kts | 269° |
| 2026-05-04 03:17 | 38.84714 | -78.79208 | 39294 ft | 395 kts | 269° |
| 2026-05-04 03:17 | 38.84660 | -78.82729 | 39403 ft | 395 kts | 269° |
| 2026-05-04 03:18 | 38.84607 | -78.86259 | 39542 ft | 396 kts | 269° |
| 2026-05-04 03:18 | 38.84552 | -78.89792 | 39669 ft | 397 kts | 269° |
| 2026-05-04 03:18 | 38.84495 | -78.93339 | 39790 ft | 397 kts | 269° |
| 2026-05-04 03:18 | 38.84437 | -78.96885 | 39922 ft | 399 kts | 268° |
| 2026-05-04 03:19 | 38.84379 | -79.00433 | 40058 ft | 398 kts | 268° |
| 2026-05-04 03:19 | 38.84319 | -79.03990 | 40181 ft | 399 kts | 268° |
| 2026-05-04 03:19 | 38.84258 | -79.07503 | 40317 ft | 398 kts | 268° |
| 2026-05-04 03:20 | 38.84134 | -79.14600 | 40498 ft | 396 kts | 268° |
| 2026-05-04 03:20 | 38.84071 | -79.18140 | 40610 ft | 397 kts | 268° |
| 2026-05-04 03:20 | 38.84004 | -79.21691 | 40710 ft | 397 kts | 268° |
| 2026-05-04 03:20 | 38.83938 | -79.25227 | 40816 ft | 397 kts | 268° |
| 2026-05-04 03:21 | 38.83871 | -79.28769 | 40921 ft | 397 kts | 268° |
| 2026-05-04 03:21 | 38.83733 | -79.35877 | 41122 ft | 398 kts | 268° |
| 2026-05-04 03:22 | 38.83591 | -79.42960 | 41328 ft | 399 kts | 268° |
| 2026-05-04 03:22 | 38.83444 | -79.50084 | 41477 ft | 400 kts | 268° |
| 2026-05-04 03:23 | 38.83291 | -79.57235 | 41626 ft | 400 kts | 268° |
| 2026-05-04 03:23 | 38.83135 | -79.64380 | 41788 ft | 401 kts | 268° |
| 2026-05-04 03:24 | 38.82974 | -79.71542 | 41894 ft | 401 kts | 268° |
| 2026-05-04 03:24 | 38.82809 | -79.78700 | 42010 ft | 402 kts | 268° |
| 2026-05-04 03:25 | 38.82637 | -79.85919 | 42146 ft | 406 kts | 268° |
| 2026-05-04 03:25 | 38.82461 | -79.93148 | 42264 ft | 405 kts | 268° |
| 2026-05-04 03:26 | 38.82282 | -80.00341 | 42389 ft | 406 kts | 268° |
| 2026-05-04 03:26 | 38.82097 | -80.07582 | 42492 ft | 407 kts | 268° |
| 2026-05-04 03:27 | 38.81907 | -80.14817 | 42604 ft | 406 kts | 268° |
| 2026-05-04 03:27 | 38.81711 | -80.22109 | 42707 ft | 412 kts | 268° |
| 2026-05-04 03:28 | 38.81510 | -80.29437 | 42804 ft | 411 kts | 268° |
| 2026-05-04 03:28 | 38.81304 | -80.36753 | 42879 ft | 411 kts | 268° |
| 2026-05-04 03:29 | 38.81093 | -80.44089 | 42966 ft | 411 kts | 268° |
| 2026-05-04 03:29 | 38.80879 | -80.51365 | 43031 ft | 411 kts | 268° |
| 2026-05-04 03:30 | 38.80657 | -80.58814 | 43079 ft | 426 kts | 268° |
| 2026-05-04 03:30 | 38.80419 | -80.66563 | 43079 ft | 442 kts | 268° |
| 2026-05-04 03:31 | 38.80168 | -80.74573 | 43070 ft | 456 kts | 268° |
| 2026-05-04 03:31 | 38.79907 | -80.82736 | 43060 ft | 459 kts | 268° |
| 2026-05-04 03:32 | 38.79685 | -80.89530 | 43058 ft | 459 kts | 268° |
| 2026-05-04 03:32 | 38.79414 | -80.97689 | 43050 ft | 457 kts | 268° |
| 2026-05-04 03:33 | 38.79090 | -81.07162 | 43045 ft | 458 kts | 268° |
| 2026-05-04 03:33 | 38.78854 | -81.13994 | 43045 ft | 458 kts | 268° |
| 2026-05-04 03:34 | 38.78566 | -81.22122 | 43052 ft | 455 kts | 268° |
| 2026-05-04 03:34 | 38.78275 | -81.30177 | 43061 ft | 457 kts | 268° |
| 2026-05-04 03:35 | 38.77976 | -81.38324 | 43057 ft | 457 kts | 268° |
| 2026-05-04 03:35 | 38.77671 | -81.46465 | 43059 ft | 457 kts | 268° |
| 2026-05-04 03:36 | 38.77361 | -81.54601 | 43063 ft | 457 kts | 267° |
| 2026-05-04 03:36 | 38.77045 | -81.62733 | 43063 ft | 457 kts | 267° |
| 2026-05-04 03:37 | 38.76722 | -81.70886 | 43053 ft | 459 kts | 267° |
| 2026-05-04 03:37 | 38.76394 | -81.79042 | 43053 ft | 458 kts | 267° |
| 2026-05-04 03:38 | 38.76062 | -81.87151 | 43053 ft | 459 kts | 267° |
| 2026-05-04 03:38 | 38.75722 | -81.95317 | 43054 ft | 458 kts | 267° |
| 2026-05-04 03:39 | 38.75376 | -82.03480 | 43054 ft | 458 kts | 267° |
| 2026-05-04 03:39 | 38.75079 | -82.11640 | 43056 ft | 458 kts | 268° |
| 2026-05-04 03:40 | 38.74771 | -82.19802 | 43051 ft | 459 kts | 267° |
| 2026-05-04 03:40 | 38.74455 | -82.27964 | 43047 ft | 458 kts | 268° |
| 2026-05-04 03:41 | 38.74137 | -82.36119 | 43049 ft | 459 kts | 267° |
| 2026-05-04 03:41 | 38.73812 | -82.44245 | 43061 ft | 462 kts | 268° |
| 2026-05-04 03:42 | 38.73480 | -82.52450 | 43059 ft | 460 kts | 267° |
| 2026-05-04 03:42 | 38.73140 | -82.60656 | 43065 ft | 461 kts | 267° |
| 2026-05-04 03:43 | 38.72797 | -82.68846 | 43062 ft | 461 kts | 267° |
| 2026-05-04 03:43 | 38.72446 | -82.77043 | 43063 ft | 461 kts | 267° |
| 2026-05-04 03:44 | 38.72090 | -82.85263 | 43067 ft | 463 kts | 267° |
| 2026-05-04 03:44 | 38.71727 | -82.93491 | 43067 ft | 463 kts | 267° |
| 2026-05-04 03:45 | 38.71358 | -83.01720 | 43064 ft | 463 kts | 267° |
| 2026-05-04 03:45 | 38.70986 | -83.09900 | 43063 ft | 463 kts | 267° |
| 2026-05-04 03:46 | 38.70606 | -83.18122 | 43058 ft | 463 kts | 267° |
| 2026-05-04 03:46 | 38.70220 | -83.26356 | 43058 ft | 463 kts | 267° |
| 2026-05-04 03:47 | 38.69828 | -83.34579 | 43044 ft | 461 kts | 267° |
| 2026-05-04 03:47 | 38.69433 | -83.42769 | 43043 ft | 462 kts | 267° |
| 2026-05-04 03:48 | 38.69030 | -83.50968 | 43038 ft | 461 kts | 267° |
| 2026-05-04 03:48 | 38.68622 | -83.59180 | 43039 ft | 463 kts | 267° |
| 2026-05-04 03:49 | 38.68209 | -83.67359 | 43037 ft | 463 kts | 267° |
| 2026-05-04 03:49 | 38.67788 | -83.75594 | 43036 ft | 463 kts | 267° |
| 2026-05-04 03:50 | 38.67362 | -83.83817 | 43034 ft | 463 kts | 267° |
| 2026-05-04 03:50 | 38.66930 | -83.92040 | 43050 ft | 463 kts | 267° |
| 2026-05-04 03:51 | 38.66491 | -84.00266 | 43045 ft | 464 kts | 267° |
| 2026-05-04 03:51 | 38.66047 | -84.08503 | 43040 ft | 464 kts | 267° |
| 2026-05-04 03:52 | 38.65597 | -84.16730 | 43035 ft | 464 kts | 267° |
| 2026-05-04 03:52 | 38.65141 | -84.24972 | 43035 ft | 464 kts | 267° |
| 2026-05-04 03:53 | 38.64682 | -84.33150 | 43032 ft | 462 kts | 267° |
| 2026-05-04 03:53 | 38.64252 | -84.41358 | 43021 ft | 462 kts | 270° |
| 2026-05-04 03:54 | 38.64750 | -84.49534 | 43029 ft | 461 kts | 276° |
| 2026-05-04 03:54 | 38.65377 | -84.57706 | 43035 ft | 461 kts | 276° |
| 2026-05-04 03:55 | 38.66017 | -84.65872 | 43030 ft | 461 kts | 276° |
| 2026-05-04 03:55 | 38.66642 | -84.74037 | 43016 ft | 460 kts | 276° |
| 2026-05-04 03:56 | 38.67264 | -84.82187 | 43009 ft | 460 kts | 276° |
| 2026-05-04 03:56 | 38.67880 | -84.90342 | 43009 ft | 460 kts | 276° |
| 2026-05-04 03:57 | 38.68486 | -84.98442 | 43011 ft | 460 kts | 276° |
| 2026-05-04 03:57 | 38.69090 | -85.06600 | 43005 ft | 460 kts | 276° |
| 2026-05-04 03:58 | 38.69952 | -85.18822 | 42998 ft | 460 kts | 275° |
| 2026-05-04 03:58 | 38.70379 | -85.26995 | 43007 ft | 460 kts | 275° |
| 2026-05-04 03:59 | 38.70810 | -85.35178 | 43022 ft | 460 kts | 275° |
| 2026-05-04 03:59 | 38.71227 | -85.43350 | 43024 ft | 460 kts | 275° |
| 2026-05-04 04:00 | 38.71645 | -85.51535 | 43020 ft | 460 kts | 275° |
| 2026-05-04 04:00 | 38.72052 | -85.59712 | 43020 ft | 460 kts | 275° |
| 2026-05-04 04:01 | 38.72457 | -85.67893 | 43018 ft | 460 kts | 275° |
| 2026-05-04 04:01 | 38.72852 | -85.76027 | 43006 ft | 460 kts | 275° |
| 2026-05-04 04:02 | 38.73245 | -85.84232 | 43002 ft | 460 kts | 274° |
| 2026-05-04 04:02 | 38.73632 | -85.92416 | 42994 ft | 460 kts | 274° |
| 2026-05-04 04:03 | 38.74013 | -86.00608 | 42994 ft | 461 kts | 274° |
| 2026-05-04 04:03 | 38.74388 | -86.08800 | 42995 ft | 460 kts | 274° |
| 2026-05-04 04:04 | 38.74756 | -86.16941 | 42994 ft | 460 kts | 274° |
| 2026-05-04 04:04 | 38.75120 | -86.25140 | 42970 ft | 460 kts | 274° |
| 2026-05-04 04:05 | 38.75478 | -86.33329 | 42974 ft | 460 kts | 274° |
| 2026-05-04 04:05 | 38.75830 | -86.41512 | 42968 ft | 460 kts | 274° |
| 2026-05-04 04:06 | 38.76176 | -86.49706 | 42969 ft | 460 kts | 274° |
| 2026-05-04 04:06 | 38.76517 | -86.57896 | 42961 ft | 460 kts | 274° |
| 2026-05-04 04:07 | 38.76851 | -86.66094 | 42969 ft | 460 kts | 274° |
| 2026-05-04 04:07 | 38.77178 | -86.74221 | 42971 ft | 460 kts | 274° |
| 2026-05-04 04:08 | 38.77500 | -86.82405 | 42960 ft | 460 kts | 274° |
| 2026-05-04 04:08 | 38.77818 | -86.90595 | 42958 ft | 460 kts | 274° |
| 2026-05-04 04:09 | 38.78129 | -86.98789 | 42950 ft | 459 kts | 274° |
| 2026-05-04 04:09 | 38.78435 | -87.06966 | 42950 ft | 459 kts | 274° |
| 2026-05-04 04:10 | 38.78735 | -87.15148 | 42950 ft | 460 kts | 274° |
| 2026-05-04 04:10 | 38.79029 | -87.23336 | 42951 ft | 460 kts | 274° |
| 2026-05-04 04:11 | 38.79316 | -87.31465 | 42945 ft | 459 kts | 274° |
| 2026-05-04 04:11 | 38.79596 | -87.39610 | 42949 ft | 455 kts | 274° |
| 2026-05-04 04:12 | 38.79872 | -87.47731 | 42946 ft | 456 kts | 274° |
| 2026-05-04 04:12 | 38.80141 | -87.55860 | 42946 ft | 456 kts | 274° |
| 2026-05-04 04:13 | 38.80405 | -87.63990 | 42947 ft | 456 kts | 274° |
| 2026-05-04 04:13 | 38.80664 | -87.72134 | 42937 ft | 456 kts | 274° |
| 2026-05-04 04:14 | 38.80914 | -87.80183 | 42935 ft | 451 kts | 275° |
| 2026-05-04 04:14 | 38.81159 | -87.88234 | 42937 ft | 452 kts | 274° |
| 2026-05-04 04:15 | 38.81396 | -87.96226 | 42929 ft | 452 kts | 274° |
| 2026-05-04 04:15 | 38.81630 | -88.04295 | 42924 ft | 452 kts | 274° |
| 2026-05-04 04:16 | 38.81858 | -88.12352 | 42928 ft | 450 kts | 274° |
| 2026-05-04 04:16 | 38.82079 | -88.20355 | 42951 ft | 450 kts | 274° |
| 2026-05-04 04:17 | 38.82295 | -88.28375 | 42949 ft | 450 kts | 274° |
| 2026-05-04 04:17 | 38.82506 | -88.36393 | 42944 ft | 450 kts | 274° |
| 2026-05-04 04:18 | 38.82710 | -88.44372 | 42936 ft | 450 kts | 274° |
| 2026-05-04 04:18 | 38.82909 | -88.52376 | 42927 ft | 448 kts | 274° |
| 2026-05-04 04:19 | 38.83103 | -88.60370 | 42919 ft | 448 kts | 274° |
| 2026-05-04 04:19 | 38.83291 | -88.68374 | 42920 ft | 449 kts | 274° |
| 2026-05-04 04:20 | 38.83474 | -88.76374 | 42920 ft | 449 kts | 274° |
| 2026-05-04 04:20 | 38.83651 | -88.84370 | 42916 ft | 449 kts | 274° |
| 2026-05-04 04:21 | 38.83824 | -88.92385 | 42917 ft | 450 kts | 274° |
| 2026-05-04 04:21 | 38.83990 | -89.00407 | 42907 ft | 449 kts | 274° |
| 2026-05-04 04:22 | 38.84152 | -89.08371 | 42899 ft | 449 kts | 274° |
| 2026-05-04 04:22 | 38.84309 | -89.16396 | 42898 ft | 450 kts | 273° |
| 2026-05-04 04:23 | 38.84458 | -89.24414 | 42879 ft | 450 kts | 273° |
| 2026-05-04 04:23 | 38.84580 | -89.31119 | 42900 ft | 453 kts | 273° |
| 2026-05-04 04:24 | 38.84720 | -89.39200 | 42898 ft | 453 kts | 273° |
| 2026-05-04 04:24 | 38.84855 | -89.47270 | 42899 ft | 453 kts | 273° |
| 2026-05-04 04:25 | 38.84984 | -89.55353 | 42896 ft | 453 kts | 273° |
| 2026-05-04 04:25 | 38.85108 | -89.63426 | 42896 ft | 453 kts | 273° |
| 2026-05-04 04:26 | 38.85226 | -89.71497 | 42890 ft | 453 kts | 273° |
| 2026-05-04 04:26 | 38.85339 | -89.79574 | 42889 ft | 453 kts | 273° |
| 2026-05-04 04:27 | 38.85446 | -89.87604 | 42889 ft | 453 kts | 273° |
| 2026-05-04 04:27 | 38.85547 | -89.95677 | 42889 ft | 453 kts | 273° |
| 2026-05-04 04:28 | 38.85644 | -90.03767 | 42887 ft | 452 kts | 272° |
| 2026-05-04 04:28 | 38.85734 | -90.11834 | 42887 ft | 452 kts | 272° |
| 2026-05-04 04:29 | 38.85819 | -90.19898 | 42886 ft | 452 kts | 272° |
| 2026-05-04 04:29 | 38.85898 | -90.27914 | 42872 ft | 452 kts | 272° |
| 2026-05-04 04:30 | 38.85972 | -90.35979 | 42869 ft | 452 kts | 272° |
| 2026-05-04 04:30 | 38.86183 | -90.44040 | 42863 ft | 452 kts | 278° |
| 2026-05-04 04:31 | 38.87717 | -90.51833 | 42865 ft | 451 kts | 291° |
| 2026-05-04 04:31 | 38.90513 | -90.59057 | 42883 ft | 454 kts | 297° |
| 2026-05-04 04:32 | 38.93425 | -90.66241 | 42877 ft | 454 kts | 296° |
| 2026-05-04 04:32 | 38.96353 | -90.73411 | 42881 ft | 453 kts | 297° |
| 2026-05-04 04:33 | 38.99268 | -90.80603 | 42868 ft | 452 kts | 296° |
| 2026-05-04 04:33 | 39.02159 | -90.87734 | 42870 ft | 452 kts | 296° |
| 2026-05-04 04:34 | 39.05060 | -90.94915 | 42862 ft | 452 kts | 296° |
| 2026-05-04 04:34 | 39.07956 | -91.02098 | 42863 ft | 452 kts | 296° |
| 2026-05-04 04:35 | 39.10851 | -91.09295 | 42860 ft | 452 kts | 296° |
| 2026-05-04 04:35 | 39.13748 | -91.16517 | 42866 ft | 453 kts | 296° |
| 2026-05-04 04:36 | 39.16626 | -91.23700 | 42861 ft | 451 kts | 296° |
| 2026-05-04 04:36 | 39.19502 | -91.30904 | 42862 ft | 452 kts | 296° |
| 2026-05-04 04:37 | 39.25245 | -91.45333 | 42861 ft | 452 kts | 296° |
| 2026-05-04 04:38 | 39.28091 | -91.52508 | 42861 ft | 452 kts | 296° |
| 2026-05-04 04:38 | 39.30940 | -91.59712 | 42864 ft | 449 kts | 296° |
| 2026-05-04 04:39 | 39.33784 | -91.66918 | 42864 ft | 450 kts | 296° |
| 2026-05-04 04:39 | 39.36620 | -91.74119 | 42869 ft | 448 kts | 296° |
| 2026-05-04 04:40 | 39.38021 | -91.77683 | 42867 ft | 434 kts | 296° |
| 2026-05-04 04:40 | 39.39382 | -91.81148 | 42853 ft | 435 kts | 296° |
| 2026-05-04 04:40 | 39.42139 | -91.88184 | 42857 ft | 440 kts | 296° |
| 2026-05-04 04:41 | 39.43500 | -91.91659 | 42272 ft | 426 kts | 296° |
| 2026-05-04 04:41 | 39.44820 | -91.95037 | 41672 ft | 414 kts | 296° |
| 2026-05-04 04:41 | 39.46099 | -91.98314 | 41092 ft | 403 kts | 296° |
| 2026-05-04 04:41 | 39.47347 | -92.01516 | 40534 ft | 392 kts | 296° |
| 2026-05-04 04:42 | 39.48560 | -92.04630 | 39993 ft | 384 kts | 295° |
| 2026-05-04 04:42 | 39.49757 | -92.07706 | 39459 ft | 381 kts | 295° |
| 2026-05-04 04:42 | 39.50944 | -92.10761 | 38970 ft | 379 kts | 295° |
| 2026-05-04 04:42 | 39.52128 | -92.13809 | 38493 ft | 379 kts | 295° |
| 2026-05-04 04:43 | 39.53315 | -92.16868 | 37931 ft | 380 kts | 295° |
| 2026-05-04 04:43 | 39.54504 | -92.19938 | 37399 ft | 382 kts | 295° |
| 2026-05-04 04:43 | 39.55698 | -92.23021 | 36893 ft | 383 kts | 295° |
| 2026-05-04 04:43 | 39.56899 | -92.26127 | 36440 ft | 387 kts | 295° |
| 2026-05-04 04:44 | 39.58105 | -92.29247 | 35953 ft | 386 kts | 295° |
| 2026-05-04 04:44 | 39.59310 | -92.32368 | 35507 ft | 388 kts | 295° |
| 2026-05-04 04:44 | 39.60516 | -92.35496 | 35077 ft | 387 kts | 295° |
| 2026-05-04 04:44 | 39.61719 | -92.38620 | 34666 ft | 387 kts | 295° |
| 2026-05-04 04:45 | 39.62921 | -92.41744 | 34284 ft | 388 kts | 295° |
| 2026-05-04 04:45 | 39.64120 | -92.44864 | 34216 ft | 391 kts | 295° |
| 2026-05-04 04:45 | 39.65334 | -92.48028 | 33697 ft | 391 kts | 295° |
| 2026-05-04 04:47 | 39.72533 | -92.67263 | 29160 ft | 394 kts | 288° |
| 2026-05-04 04:47 | 39.73136 | -92.70729 | 28261 ft | 393 kts | 279° |
| 2026-05-04 04:47 | 39.73243 | -92.74262 | 27396 ft | 391 kts | 270° |
| 2026-05-04 04:47 | 39.72962 | -92.77766 | 26563 ft | 388 kts | 266° |
| 2026-05-04 04:48 | 39.72662 | -92.81209 | 26086 ft | 380 kts | 266° |
| 2026-05-04 04:49 | 39.71486 | -92.94921 | 24924 ft | 380 kts | 266° |
| 2026-05-04 04:49 | 39.71191 | -92.98330 | 24639 ft | 379 kts | 266° |
| 2026-05-04 04:49 | 39.70896 | -93.01733 | 24353 ft | 378 kts | 266° |
| 2026-05-04 04:49 | 39.70598 | -93.05122 | 24070 ft | 377 kts | 266° |
| 2026-05-04 04:50 | 39.70299 | -93.08510 | 23771 ft | 377 kts | 265° |
| 2026-05-04 04:50 | 39.70001 | -93.11884 | 23500 ft | 377 kts | 265° |
| 2026-05-04 04:50 | 39.69701 | -93.15285 | 23150 ft | 376 kts | 265° |
| 2026-05-04 04:50 | 39.69402 | -93.18634 | 22712 ft | 372 kts | 265° |
| 2026-05-04 04:51 | 39.69109 | -93.21912 | 22284 ft | 369 kts | 265° |
| 2026-05-04 04:51 | 39.68814 | -93.25213 | 21857 ft | 367 kts | 266° |
| 2026-05-04 04:51 | 39.68521 | -93.28487 | 21440 ft | 364 kts | 266° |
| 2026-05-04 04:51 | 39.68226 | -93.31754 | 21026 ft | 362 kts | 266° |
| 2026-05-04 04:52 | 39.67934 | -93.34992 | 20620 ft | 360 kts | 266° |
| 2026-05-04 04:52 | 39.67642 | -93.38212 | 20214 ft | 358 kts | 266° |
| 2026-05-04 04:52 | 39.67351 | -93.41417 | 19805 ft | 356 kts | 266° |
| 2026-05-04 04:52 | 39.67060 | -93.44609 | 19127 ft | 354 kts | 266° |
| 2026-05-04 04:53 | 39.66771 | -93.47762 | 18459 ft | 349 kts | 266° |
| 2026-05-04 04:53 | 39.66485 | -93.50880 | 17754 ft | 346 kts | 266° |
| 2026-05-04 04:53 | 39.66202 | -93.53965 | 17009 ft | 343 kts | 266° |
| 2026-05-04 04:53 | 39.65921 | -93.57026 | 16287 ft | 341 kts | 266° |
| 2026-05-04 04:54 | 39.65639 | -93.60069 | 15582 ft | 338 kts | 265° |
| 2026-05-04 04:54 | 39.65362 | -93.63050 | 14900 ft | 336 kts | 265° |
| 2026-05-04 04:54 | 39.65083 | -93.66050 | 14231 ft | 334 kts | 265° |
| 2026-05-04 04:54 | 39.64803 | -93.69046 | 13558 ft | 332 kts | 265° |
| 2026-05-04 04:55 | 39.64526 | -93.72014 | 12820 ft | 329 kts | 264° |
| 2026-05-04 04:55 | 39.64252 | -93.74934 | 12100 ft | 324 kts | 264° |
| 2026-05-04 04:55 | 39.63982 | -93.77803 | 11762 ft | 318 kts | 263° |
| 2026-05-04 04:55 | 39.63722 | -93.80554 | 11761 ft | 290 kts | 264° |
| 2026-05-04 04:56 | 39.63486 | -93.83028 | 11750 ft | 266 kts | 264° |
| 2026-05-04 04:56 | 39.63260 | -93.85428 | 11749 ft | 268 kts | 264° |
| 2026-05-04 04:56 | 39.62933 | -93.87785 | 11727 ft | 272 kts | 255° |
| 2026-05-04 04:56 | 39.62146 | -93.90022 | 11761 ft | 274 kts | 247° |
| 2026-05-04 04:57 | 39.61330 | -93.92240 | 11769 ft | 272 kts | 248° |
| 2026-05-04 04:57 | 39.60532 | -93.94471 | 11768 ft | 272 kts | 248° |
| 2026-05-04 04:57 | 39.59724 | -93.96703 | 11763 ft | 273 kts | 248° |
| 2026-05-04 04:57 | 39.58907 | -93.98939 | 11766 ft | 281 kts | 248° |
| 2026-05-04 04:58 | 39.58023 | -94.01377 | 11442 ft | 316 kts | 248° |
| 2026-05-04 04:58 | 39.57076 | -94.03967 | 11011 ft | 317 kts | 247° |
| 2026-05-04 04:58 | 39.56128 | -94.06545 | 10581 ft | 317 kts | 246° |
| 2026-05-04 04:58 | 39.55198 | -94.09090 | 10157 ft | 315 kts | 246° |
| 2026-05-04 04:59 | 39.54254 | -94.11677 | 9722 ft | 306 kts | 246° |
| 2026-05-04 04:59 | 39.53366 | -94.14071 | 9232 ft | 284 kts | 244° |
| 2026-05-04 04:59 | 39.52353 | -94.16140 | 8743 ft | 268 kts | 238° |
| 2026-05-04 04:59 | 39.51329 | -94.18094 | 8277 ft | 258 kts | 238° |
| 2026-05-04 05:00 | 39.50346 | -94.20010 | 7808 ft | 253 kts | 238° |
| 2026-05-04 05:00 | 39.49392 | -94.21883 | 7358 ft | 246 kts | 237° |
| 2026-05-04 05:00 | 39.47520 | -94.25533 | 6497 ft | 242 kts | 237° |
| 2026-05-04 05:01 | 39.46590 | -94.27343 | 6056 ft | 239 kts | 237° |
| 2026-05-04 05:01 | 39.45663 | -94.29148 | 5608 ft | 243 kts | 237° |
| 2026-05-04 05:01 | 39.44726 | -94.30970 | 5165 ft | 244 kts | 237° |
| 2026-05-04 05:01 | 39.43783 | -94.32802 | 4729 ft | 246 kts | 237° |
| 2026-05-04 05:02 | 39.42831 | -94.34653 | 4281 ft | 248 kts | 236° |
| 2026-05-04 05:02 | 39.41874 | -94.36509 | 3832 ft | 246 kts | 236° |
| 2026-05-04 05:02 | 39.40907 | -94.38382 | 3394 ft | 253 kts | 236° |
| 2026-05-04 05:02 | 39.39933 | -94.40275 | 2959 ft | 254 kts | 236° |
| 2026-05-04 05:03 | 39.38970 | -94.42142 | 3185 ft | 242 kts | 236° |
| 2026-05-04 05:03 | 39.38078 | -94.43925 | 3844 ft | 233 kts | 238° |
| 2026-05-04 05:04 | 39.35605 | -94.49599 | 4763 ft | 243 kts | 242° |
| 2026-05-04 05:04 | 39.34793 | -94.51520 | 4842 ft | 247 kts | 236° |
| 2026-05-04 05:04 | 39.33625 | -94.53119 | 4929 ft | 242 kts | 224° |
| 2026-05-04 05:06 | 39.25532 | -94.62818 | 6973 ft | 208 kts | 199° |
| 2026-05-04 05:06 | 39.24118 | -94.63238 | 6982 ft | 210 kts | 201° |
| 2026-05-04 05:06 | 39.22705 | -94.63670 | 6956 ft | 210 kts | 200° |
| 2026-05-04 05:07 | 39.21258 | -94.64101 | 6641 ft | 212 kts | 200° |
| 2026-05-04 05:07 | 39.19810 | -94.64525 | 6164 ft | 214 kts | 200° |
| 2026-05-04 05:07 | 39.18352 | -94.64955 | 5663 ft | 215 kts | 200° |
| 2026-05-04 05:09 | 39.17911 | -94.75636 | 3234 ft | 233 kts | 338° |
| 2026-05-04 05:09 | 39.19549 | -94.75797 | 2921 ft | 239 kts | 3° |
| 2026-05-04 05:10 | 39.20633 | -94.75559 | 2763 ft | 238 kts | 8° |
| 2026-05-04 05:10 | 39.22233 | -94.75082 | 2605 ft | 228 kts | 14° |
| 2026-05-04 05:10 | 39.23635 | -94.74575 | 2279 ft | 194 kts | 12° |
| 2026-05-04 05:10 | 39.24879 | -94.74274 | 1973 ft | 168 kts | 12° |
| 2026-05-04 05:11 | 39.25955 | -94.73978 | 1799 ft | 150 kts | 17° |
| 2026-05-04 05:11 | 39.26938 | -94.73702 | 1563 ft | 140 kts | 18° |
| 2026-05-04 05:11 | 39.27857 | -94.73390 | 1391 ft | 133 kts | 19° |
| 2026-05-04 05:11 | 39.28762 | -94.73117 | 1150 ft | 134 kts | 19° |
| 2026-05-04 05:12 | 39.29654 | -94.72839 | 1023 ft | 130 kts | 17° |
| 2026-05-04 05:12 | 39.30325 | -94.72642 | 1012 ft | 67 kts | 13° |
| 2026-05-04 05:12 | 39.30655 | -94.72541 | 1004 ft | 37 kts | 13° |
| 2026-05-04 05:12 | 39.30805 | -94.72493 | 1003 ft | 15 kts | 25° |
| 2026-05-04 05:13 | 39.30814 | -94.72406 | 1004 ft | 7 kts | 132° |
| 2026-05-04 05:13 | 39.30787 | -94.72354 | 1006 ft | 8 kts | 84° |
| 2026-05-04 05:13 | 39.30848 | -94.72324 | 1004 ft | 13 kts | 13° |
| 2026-05-04 05:13 | 39.30956 | -94.72285 | 1003 ft | 19 kts | 13° |
| 2026-05-04 05:14 | 39.31097 | -94.72245 | 1003 ft | 23 kts | 12° |
| 2026-05-04 05:14 | 39.31207 | -94.72203 | 1001 ft | 5 kts | 75° |
| 2026-05-04 05:14 | 39.31174 | -94.72150 | 1000 ft | 11 kts | 117° |
| 2026-05-04 05:14 | 39.31224 | -94.72098 | 999 ft | 13 kts | 12° |
| 2026-05-04 05:15 | 39.31325 | -94.72069 | 998 ft | 16 kts | 13° |
| 2026-05-04 05:15 | 39.31346 | -94.71991 | 995 ft | 13 kts | 105° |
| 2026-05-04 05:15 | 39.31323 | -94.71865 | 997 ft | 12 kts | 102° |
| 2026-05-04 05:15 | 39.31332 | -94.71821 | 992 ft | 2 kts | 11° |
| 2026-05-04 05:16 | 39.31342 | -94.71811 | 991 ft | 2 kts | 53° |
| 2026-05-04 05:16 | 39.31345 | -94.71804 | 991 ft | 0 kts | 60° |